• Join FlightAware (Why Join?)
  • Login
  • US Flag 
04:56PM EDT


 

Airport Tracker/Info


-or-


 

Live Flight TrackerFlight Track Log ✈ CSC8652 ✈ 18-Apr-2014 ✈ ZUZH / PZI - ZUUU / CTU

Flight Track Log - Related Links

Times and Time Zones

All times are in EDT time to prevent confusion due to time zone crossing. See the CSC8652 flight status page for this flight to view local times or setup timezone preferences in your user account.

Time Position Orientation Groundspeed Altitude Reporting Facility
EDT Latitude Longitude Course Direction KTS MPH feet Rate Location/Type
12:31AM 26.9739 102.0213 25° Northeast  Level Estimated
12:32AM 27.0461 102.0585 25° Northeast  Level Estimated
12:33AM 27.1184 102.0958 25° Northeast  Level Estimated
12:34AM 27.1907 102.1331 25° Northeast  Level Estimated
12:35AM 27.2629 102.1704 25° Northeast  Level Estimated
12:36AM 27.3351 102.2078 25° Northeast  Level Estimated
12:37AM 27.4074 102.2453 25° Northeast  Level Estimated
12:38AM 27.4796 102.2828 25° Northeast  Level Estimated
12:39AM 27.5518 102.3204 25° Northeast  Level Estimated
12:40AM 27.6240 102.3580 25° Northeast  Level Estimated
12:41AM 27.6962 102.3956 25° Northeast  Level Estimated
12:42AM 27.7683 102.4333 25° Northeast  Level Estimated
12:43AM 27.8405 102.4711 25° Northeast  Level Estimated
12:44AM 27.9127 102.5089 25° Northeast  Level Estimated
12:45AM 27.9848 102.5467 25° Northeast  Level Estimated
12:46AM 28.0569 102.5846 25° Northeast  Level Estimated
12:47AM 28.1291 102.6226 25° Northeast  Level Estimated
12:48AM 28.2012 102.6606 25° Northeast  Level Estimated
12:49AM 28.2733 102.6987 25° Northeast  Level Estimated
12:50AM 28.3454 102.7368 25° Northeast  Level Estimated
12:51AM 28.4174 102.7749 25° Northeast  Level Estimated
12:52AM 28.4895 102.8131 25° Northeast  Level Estimated
12:53AM 28.5616 102.8514 25° Northeast  Level Estimated
12:54AM 28.6336 102.8897 25° Northeast  Level Estimated
12:55AM 28.7057 102.9281 25° Northeast  Level Estimated
12:56AM 28.7777 102.9665 25° Northeast  Level Estimated
12:57AM 28.8497 103.0050 25° Northeast  Level Estimated
12:58AM 28.9217 103.0435 25° Northeast  Level Estimated
12:59AM 28.9937 103.0821 25° Northeast  Level Estimated
01:00AM 29.0657 103.1208 25° Northeast  Level Estimated
01:01AM 29.1377 103.1594 25° Northeast  Level Estimated
01:02AM 29.2096 103.1982 25° Northeast  Level Estimated
01:03AM 29.2816 103.2370 25° Northeast  Level Estimated
01:04AM 29.3535 103.2758 25° Northeast  Level Estimated
01:05AM 29.4254 103.3148 25° Northeast  Level Estimated
01:06AM 29.4974 103.3537 25° Northeast  Level Estimated
01:07AM 29.5693 103.3927 25° Northeast  Level Estimated
01:08AM 29.6412 103.4318 25° Northeast  Level Estimated
01:09AM 29.7130 103.4709 25° Northeast  Level Estimated
01:10AM 29.7849 103.5101 25° Northeast  Level Estimated
01:11AM 29.8568 103.5494 25° Northeast  Level Estimated
01:12AM 29.9286 103.5887 25° Northeast  Level Estimated
01:13AM 30.0005 103.6280 25° Northeast  Level Estimated
01:14AM 30.0723 103.6674 25° Northeast  Level Estimated
01:15AM 30.1441 103.7069 25° Northeast  Level Estimated
01:16AM 30.2159 103.7465 25° Northeast  Level Estimated
01:17AM 30.2877 103.7860 25° Northeast  Level Estimated
01:18AM 30.3595 103.8257 25° Northeast  Level Estimated
01:19AM 30.4312 103.8654 26° Northeast  Level Estimated
01:20AM 30.5030 103.9052 26° Northeast  Level Estimated
01:21AM 30.5747 103.9450 26° Northeast  Level Estimated
01:22AM 30.5785 103.9471 26° Northeast  Level Estimated